sensor_id;sensor_type;location;lat;lon;timestamp;pressure;altitude;pressure_sealevel;temperature
9985;BMP180;16737;50.932;6.780;2022-08-21T00:01:22;100468.00;;;23.60
9985;BMP180;16737;50.932;6.780;2022-08-21T00:03:51;100475.00;;;23.60
9985;BMP180;16737;50.932;6.780;2022-08-21T00:06:18;100475.00;;;23.60
9985;BMP180;16737;50.932;6.780;2022-08-21T00:08:46;100469.00;;;23.50
9985;BMP180;16737;50.932;6.780;2022-08-21T00:11:14;100464.00;;;23.50
9985;BMP180;16737;50.932;6.780;2022-08-21T00:13:41;100459.00;;;23.50
9985;BMP180;16737;50.932;6.780;2022-08-21T00:16:09;100462.00;;;23.40
9985;BMP180;16737;50.932;6.780;2022-08-21T00:18:38;100460.00;;;23.40
9985;BMP180;16737;50.932;6.780;2022-08-21T00:21:06;100452.00;;;23.30
9985;BMP180;16737;50.932;6.780;2022-08-21T00:23:34;100451.00;;;23.30
9985;BMP180;16737;50.932;6.780;2022-08-21T00:26:02;100442.00;;;23.30
9985;BMP180;16737;50.932;6.780;2022-08-21T00:28:30;100448.00;;;23.30
9985;BMP180;16737;50.932;6.780;2022-08-21T00:30:58;100450.00;;;23.20
9985;BMP180;16737;50.932;6.780;2022-08-21T00:33:26;100440.00;;;23.20
9985;BMP180;16737;50.932;6.780;2022-08-21T00:35:54;100438.00;;;23.10
9985;BMP180;16737;50.932;6.780;2022-08-21T00:38:22;100435.00;;;23.10
9985;BMP180;16737;50.932;6.780;2022-08-21T00:40:52;100434.00;;;23.10
9985;BMP180;16737;50.932;6.780;2022-08-21T00:43:22;100440.00;;;23.00
9985;BMP180;16737;50.932;6.780;2022-08-21T00:45:51;100430.00;;;23.00
9985;BMP180;16737;50.932;6.780;2022-08-21T00:48:18;100437.00;;;22.90
9985;BMP180;16737;50.932;6.780;2022-08-21T00:50:50;100432.00;;;22.90
9985;BMP180;16737;50.932;6.780;2022-08-21T00:53:20;100434.00;;;22.90
9985;BMP180;16737;50.932;6.780;2022-08-21T00:55:48;100433.00;;;22.80
9985;BMP180;16737;50.932;6.780;2022-08-21T00:58:17;100433.00;;;22.80
9985;BMP180;16737;50.932;6.780;2022-08-21T01:00:47;100429.00;;;22.80
9985;BMP180;16737;50.932;6.780;2022-08-21T01:03:20;100427.00;;;22.70
9985;BMP180;16737;50.932;6.780;2022-08-21T01:05:47;100426.00;;;22.70
9985;BMP180;16737;50.932;6.780;2022-08-21T01:08:16;100422.00;;;22.70
9985;BMP180;16737;50.932;6.780;2022-08-21T01:10:45;100430.00;;;22.60
9985;BMP180;16737;50.932;6.780;2022-08-21T01:13:15;100427.00;;;22.60
9985;BMP180;16737;50.932;6.780;2022-08-21T01:15:46;100431.00;;;22.50
9985;BMP180;16737;50.932;6.780;2022-08-21T01:18:15;100429.00;;;22.50
9985;BMP180;16737;50.932;6.780;2022-08-21T01:20:50;100432.00;;;22.50
9985;BMP180;16737;50.932;6.780;2022-08-21T01:23:17;100438.00;;;22.40
9985;BMP180;16737;50.932;6.780;2022-08-21T01:25:45;100443.00;;;22.40
9985;BMP180;16737;50.932;6.780;2022-08-21T01:28:13;100434.00;;;22.30
9985;BMP180;16737;50.932;6.780;2022-08-21T01:30:42;100434.00;;;22.30
9985;BMP180;16737;50.932;6.780;2022-08-21T01:33:11;100438.00;;;22.30
9985;BMP180;16737;50.932;6.780;2022-08-21T01:35:38;100434.00;;;22.20
9985;BMP180;16737;50.932;6.780;2022-08-21T01:38:07;100434.00;;;22.20
9985;BMP180;16737;50.932;6.780;2022-08-21T01:40:35;100426.00;;;22.10
9985;BMP180;16737;50.932;6.780;2022-08-21T01:43:02;100430.00;;;22.10
9985;BMP180;16737;50.932;6.780;2022-08-21T01:45:30;100429.00;;;22.10
9985;BMP180;16737;50.932;6.780;2022-08-21T01:47:57;100431.00;;;22.00
9985;BMP180;16737;50.932;6.780;2022-08-21T01:50:25;100422.00;;;22.00
9985;BMP180;16737;50.932;6.780;2022-08-21T01:52:52;100425.00;;;21.90
9985;BMP180;16737;50.932;6.780;2022-08-21T01:55:22;100422.00;;;21.90
9985;BMP180;16737;50.932;6.780;2022-08-21T01:57:49;100419.00;;;21.90
9985;BMP180;16737;50.932;6.780;2022-08-21T02:00:20;100423.00;;;21.80
9985;BMP180;16737;50.932;6.780;2022-08-21T02:02:49;100419.00;;;21.80
9985;BMP180;16737;50.932;6.780;2022-08-21T02:05:17;100415.00;;;21.70
9985;BMP180;16737;50.932;6.780;2022-08-21T02:07:47;100420.00;;;21.80
9985;BMP180;16737;50.932;6.780;2022-08-21T02:10:18;100419.00;;;21.80
9985;BMP180;16737;50.932;6.780;2022-08-21T02:12:46;100411.00;;;21.70
9985;BMP180;16737;50.932;6.780;2022-08-21T02:15:14;100413.00;;;21.70
9985;BMP180;16737;50.932;6.780;2022-08-21T02:17:44;100412.00;;;21.70
9985;BMP180;16737;50.932;6.780;2022-08-21T02:20:16;100410.00;;;21.60
9985;BMP180;16737;50.932;6.780;2022-08-21T02:22:44;100402.00;;;21.60
9985;BMP180;16737;50.932;6.780;2022-08-21T02:25:11;100402.00;;;21.60
9985;BMP180;16737;50.932;6.780;2022-08-21T02:27:41;100408.00;;;21.60
9985;BMP180;16737;50.932;6.780;2022-08-21T02:30:12;100410.00;;;21.50
9985;BMP180;16737;50.932;6.780;2022-08-21T02:32:40;100402.00;;;21.50
9985;BMP180;16737;50.932;6.780;2022-08-21T02:35:09;100403.00;;;21.40
9985;BMP180;16737;50.932;6.780;2022-08-21T02:37:44;100400.00;;;21.40
9985;BMP180;16737;50.932;6.780;2022-08-21T02:40:12;100399.00;;;21.40
9985;BMP180;16737;50.932;6.780;2022-08-21T02:42:40;100396.00;;;21.30
9985;BMP180;16737;50.932;6.780;2022-08-21T02:45:09;100395.00;;;21.30
9985;BMP180;16737;50.932;6.780;2022-08-21T02:47:37;100399.00;;;21.30
9985;BMP180;16737;50.932;6.780;2022-08-21T02:50:07;100401.00;;;21.20
9985;BMP180;16737;50.932;6.780;2022-08-21T02:52:34;100404.00;;;21.20
9985;BMP180;16737;50.932;6.780;2022-08-21T02:55:03;100398.00;;;21.20
9985;BMP180;16737;50.932;6.780;2022-08-21T02:57:31;100396.00;;;21.20
9985;BMP180;16737;50.932;6.780;2022-08-21T02:59:58;100400.00;;;21.20
9985;BMP180;16737;50.932;6.780;2022-08-21T03:02:27;100404.00;;;21.20
9985;BMP180;16737;50.932;6.780;2022-08-21T03:04:54;100398.00;;;21.20
9985;BMP180;16737;50.932;6.780;2022-08-21T03:07:22;100400.00;;;21.20
9985;BMP180;16737;50.932;6.780;2022-08-21T03:09:49;100394.00;;;21.20
9985;BMP180;16737;50.932;6.780;2022-08-21T03:12:17;100392.00;;;21.20
9985;BMP180;16737;50.932;6.780;2022-08-21T03:14:44;100394.00;;;21.20
9985;BMP180;16737;50.932;6.780;2022-08-21T03:17:11;100399.00;;;21.20
9985;BMP180;16737;50.932;6.780;2022-08-21T03:19:40;100392.00;;;21.10
9985;BMP180;16737;50.932;6.780;2022-08-21T03:22:07;100395.00;;;21.10
9985;BMP180;16737;50.932;6.780;2022-08-21T03:24:35;100390.00;;;21.10
9985;BMP180;16737;50.932;6.780;2022-08-21T03:27:02;100383.00;;;21.10
9985;BMP180;16737;50.932;6.780;2022-08-21T03:29:30;100385.00;;;21.10
9985;BMP180;16737;50.932;6.780;2022-08-21T03:31:57;100391.00;;;21.00
9985;BMP180;16737;50.932;6.780;2022-08-21T03:34:24;100385.00;;;21.00
9985;BMP180;16737;50.932;6.780;2022-08-21T03:36:53;100388.00;;;20.90
9985;BMP180;16737;50.932;6.780;2022-08-21T03:39:21;100390.00;;;20.90
9985;BMP180;16737;50.932;6.780;2022-08-21T03:41:48;100391.00;;;20.80
9985;BMP180;16737;50.932;6.780;2022-08-21T03:44:15;100381.00;;;20.70
9985;BMP180;16737;50.932;6.780;2022-08-21T03:46:43;100387.00;;;20.70
9985;BMP180;16737;50.932;6.780;2022-08-21T03:49:10;100384.00;;;20.70
9985;BMP180;16737;50.932;6.780;2022-08-21T03:51:38;100386.00;;;20.60
9985;BMP180;16737;50.932;6.780;2022-08-21T03:54:07;100383.00;;;20.60
9985;BMP180;16737;50.932;6.780;2022-08-21T03:56:34;100388.00;;;20.60
9985;BMP180;16737;50.932;6.780;2022-08-21T03:59:02;100385.00;;;20.50
9985;BMP180;16737;50.932;6.780;2022-08-21T04:01:29;100389.00;;;20.50
9985;BMP180;16737;50.932;6.780;2022-08-21T04:03:57;100385.00;;;20.50
9985;BMP180;16737;50.932;6.780;2022-08-21T04:06:24;100385.00;;;20.40
9985;BMP180;16737;50.932;6.780;2022-08-21T04:08:52;100385.00;;;20.40
9985;BMP180;16737;50.932;6.780;2022-08-21T04:11:22;100392.00;;;20.30
9985;BMP180;16737;50.932;6.780;2022-08-21T04:13:50;100390.00;;;20.30
9985;BMP180;16737;50.932;6.780;2022-08-21T04:16:17;100397.00;;;20.30
9985;BMP180;16737;50.932;6.780;2022-08-21T04:18:45;100400.00;;;20.30
9985;BMP180;16737;50.932;6.780;2022-08-21T04:21:12;100407.00;;;20.30
9985;BMP180;16737;50.932;6.780;2022-08-21T04:23:40;100410.00;;;20.20
9985;BMP180;16737;50.932;6.780;2022-08-21T04:26:07;100410.00;;;20.20
9985;BMP180;16737;50.932;6.780;2022-08-21T04:28:36;100410.00;;;20.20
9985;BMP180;16737;50.932;6.780;2022-08-21T04:31:03;100409.00;;;20.20
9985;BMP180;16737;50.932;6.780;2022-08-21T04:33:31;100418.00;;;20.20
9985;BMP180;16737;50.932;6.780;2022-08-21T04:35:58;100419.00;;;20.10
9985;BMP180;16737;50.932;6.780;2022-08-21T04:38:25;100420.00;;;20.10
9985;BMP180;16737;50.932;6.780;2022-08-21T04:40:53;100419.00;;;20.10
9985;BMP180;16737;50.932;6.780;2022-08-21T04:43:21;100413.00;;;20.10
9985;BMP180;16737;50.932;6.780;2022-08-21T04:45:52;100420.00;;;20.10
9985;BMP180;16737;50.932;6.780;2022-08-21T04:48:22;100416.00;;;20.10
9985;BMP180;16737;50.932;6.780;2022-08-21T04:50:54;100420.00;;;20.10
9985;BMP180;16737;50.932;6.780;2022-08-21T04:53:26;100421.00;;;20.10
9985;BMP180;16737;50.932;6.780;2022-08-21T04:55:55;100425.00;;;20.10
9985;BMP180;16737;50.932;6.780;2022-08-21T04:58:25;100422.00;;;20.10
9985;BMP180;16737;50.932;6.780;2022-08-21T05:00:55;100421.00;;;20.10
9985;BMP180;16737;50.932;6.780;2022-08-21T05:03:23;100420.00;;;20.10
9985;BMP180;16737;50.932;6.780;2022-08-21T05:05:52;100423.00;;;20.10
9985;BMP180;16737;50.932;6.780;2022-08-21T05:08:22;100428.00;;;20.10
9985;BMP180;16737;50.932;6.780;2022-08-21T05:10:51;100417.00;;;20.10
9985;BMP180;16737;50.932;6.780;2022-08-21T05:13:19;100419.00;;;20.20
9985;BMP180;16737;50.932;6.780;2022-08-21T05:15:46;100415.00;;;20.20
9985;BMP180;16737;50.932;6.780;2022-08-21T05:18:15;100426.00;;;20.20
9985;BMP180;16737;50.932;6.780;2022-08-21T05:20:43;100421.00;;;20.20
9985;BMP180;16737;50.932;6.780;2022-08-21T05:23:13;100430.00;;;20.20
9985;BMP180;16737;50.932;6.780;2022-08-21T05:25:41;100422.00;;;20.20
9985;BMP180;16737;50.932;6.780;2022-08-21T05:28:10;100415.00;;;20.30
9985;BMP180;16737;50.932;6.780;2022-08-21T05:30:38;100425.00;;;20.30
9985;BMP180;16737;50.932;6.780;2022-08-21T05:33:07;100424.00;;;20.30
9985;BMP180;16737;50.932;6.780;2022-08-21T05:35:36;100426.00;;;20.30
9985;BMP180;16737;50.932;6.780;2022-08-21T05:38:05;100420.00;;;20.40
9985;BMP180;16737;50.932;6.780;2022-08-21T05:40:32;100429.00;;;20.40
9985;BMP180;16737;50.932;6.780;2022-08-21T05:43:00;100427.00;;;20.50
9985;BMP180;16737;50.932;6.780;2022-08-21T05:45:30;100433.00;;;20.50
9985;BMP180;16737;50.932;6.780;2022-08-21T05:47:57;100432.00;;;20.50
9985;BMP180;16737;50.932;6.780;2022-08-21T05:50:25;100433.00;;;20.60
9985;BMP180;16737;50.932;6.780;2022-08-21T05:52:53;100443.00;;;20.60
9985;BMP180;16737;50.932;6.780;2022-08-21T05:55:21;100442.00;;;20.60
9985;BMP180;16737;50.932;6.780;2022-08-21T05:57:48;100433.00;;;20.70
9985;BMP180;16737;50.932;6.780;2022-08-21T06:00:16;100441.00;;;20.70
9985;BMP180;16737;50.932;6.780;2022-08-21T06:02:43;100435.00;;;20.80
9985;BMP180;16737;50.932;6.780;2022-08-21T06:05:11;100444.00;;;20.90
9985;BMP180;16737;50.932;6.780;2022-08-21T06:07:38;100434.00;;;20.90
9985;BMP180;16737;50.932;6.780;2022-08-21T06:10:08;100432.00;;;20.90
9985;BMP180;16737;50.932;6.780;2022-08-21T06:12:35;100436.00;;;21.00
9985;BMP180;16737;50.932;6.780;2022-08-21T06:15:03;100433.00;;;21.10
9985;BMP180;16737;50.932;6.780;2022-08-21T06:17:31;100428.00;;;21.10
9985;BMP180;16737;50.932;6.780;2022-08-21T06:19:58;100438.00;;;21.20
9985;BMP180;16737;50.932;6.780;2022-08-21T06:22:26;100432.00;;;21.30
9985;BMP180;16737;50.932;6.780;2022-08-21T06:24:54;100427.00;;;21.30
9985;BMP180;16737;50.932;6.780;2022-08-21T06:27:23;100430.00;;;21.40
9985;BMP180;16737;50.932;6.780;2022-08-21T06:29:50;100428.00;;;21.40
9985;BMP180;16737;50.932;6.780;2022-08-21T06:32:18;100434.00;;;21.50
9985;BMP180;16737;50.932;6.780;2022-08-21T06:34:47;100429.00;;;21.60
9985;BMP180;16737;50.932;6.780;2022-08-21T06:37:14;100438.00;;;21.60
9985;BMP180;16737;50.932;6.780;2022-08-21T06:39:42;100433.00;;;21.70
9985;BMP180;16737;50.932;6.780;2022-08-21T06:42:13;100443.00;;;21.80
9985;BMP180;16737;50.932;6.780;2022-08-21T06:44:42;100439.00;;;21.90
9985;BMP180;16737;50.932;6.780;2022-08-21T06:47:10;100433.00;;;22.00
9985;BMP180;16737;50.932;6.780;2022-08-21T06:49:37;100436.00;;;22.00
9985;BMP180;16737;50.932;6.780;2022-08-21T06:52:08;100435.00;;;22.10
9985;BMP180;16737;50.932;6.780;2022-08-21T06:54:37;100437.00;;;22.10
9985;BMP180;16737;50.932;6.780;2022-08-21T06:57:04;100443.00;;;22.20
9985;BMP180;16737;50.932;6.780;2022-08-21T06:59:33;100436.00;;;22.20
9985;BMP180;16737;50.932;6.780;2022-08-21T07:02:02;100445.00;;;22.30
9985;BMP180;16737;50.932;6.780;2022-08-21T07:04:29;100442.00;;;22.30
9985;BMP180;16737;50.932;6.780;2022-08-21T07:06:57;100447.00;;;22.40
9985;BMP180;16737;50.932;6.780;2022-08-21T07:09:24;100446.00;;;22.50
9985;BMP180;16737;50.932;6.780;2022-08-21T07:11:53;100453.00;;;22.50
9985;BMP180;16737;50.932;6.780;2022-08-21T07:14:21;100453.00;;;22.60
9985;BMP180;16737;50.932;6.780;2022-08-21T07:16:49;100455.00;;;22.70
9985;BMP180;16737;50.932;6.780;2022-08-21T07:19:18;100454.00;;;22.70
9985;BMP180;16737;50.932;6.780;2022-08-21T07:21:46;100454.00;;;22.80
9985;BMP180;16737;50.932;6.780;2022-08-21T07:24:14;100459.00;;;22.90
9985;BMP180;16737;50.932;6.780;2022-08-21T07:26:41;100459.00;;;23.00
9985;BMP180;16737;50.932;6.780;2022-08-21T07:29:09;100466.00;;;23.10
9985;BMP180;16737;50.932;6.780;2022-08-21T07:31:36;100457.00;;;23.20
9985;BMP180;16737;50.932;6.780;2022-08-21T07:34:03;100456.00;;;23.30
9985;BMP180;16737;50.932;6.780;2022-08-21T07:36:32;100452.00;;;23.40
9985;BMP180;16737;50.932;6.780;2022-08-21T07:38:59;100454.00;;;23.50
9985;BMP180;16737;50.932;6.780;2022-08-21T07:41:28;100454.00;;;23.60
9985;BMP180;16737;50.932;6.780;2022-08-21T07:43:56;100456.00;;;23.70
9985;BMP180;16737;50.932;6.780;2022-08-21T07:46:25;100455.00;;;23.70
9985;BMP180;16737;50.932;6.780;2022-08-21T07:48:53;100457.00;;;23.80
9985;BMP180;16737;50.932;6.780;2022-08-21T07:51:23;100455.00;;;23.80
9985;BMP180;16737;50.932;6.780;2022-08-21T07:53:55;100458.00;;;23.80
9985;BMP180;16737;50.932;6.780;2022-08-21T07:56:23;100453.00;;;23.80
9985;BMP180;16737;50.932;6.780;2022-08-21T07:58:51;100466.00;;;23.90
9985;BMP180;16737;50.932;6.780;2022-08-21T08:01:18;100470.00;;;23.90
9985;BMP180;16737;50.932;6.780;2022-08-21T08:03:47;100462.00;;;23.90
9985;BMP180;16737;50.932;6.780;2022-08-21T08:06:14;100455.00;;;23.90
9985;BMP180;16737;50.932;6.780;2022-08-21T08:08:44;100451.00;;;23.90
9985;BMP180;16737;50.932;6.780;2022-08-21T08:11:13;100452.00;;;23.90
9985;BMP180;16737;50.932;6.780;2022-08-21T08:13:44;100450.00;;;24.00
9985;BMP180;16737;50.932;6.780;2022-08-21T08:16:12;100450.00;;;24.00
9985;BMP180;16737;50.932;6.780;2022-08-21T08:18:40;100443.00;;;24.10
9985;BMP180;16737;50.932;6.780;2022-08-21T08:21:08;100450.00;;;24.20
9985;BMP180;16737;50.932;6.780;2022-08-21T08:23:36;100445.00;;;24.30
9985;BMP180;16737;50.932;6.780;2022-08-21T08:26:04;100446.00;;;24.40
9985;BMP180;16737;50.932;6.780;2022-08-21T08:28:33;100444.00;;;24.50
9985;BMP180;16737;50.932;6.780;2022-08-21T08:31:01;100444.00;;;24.70
9985;BMP180;16737;50.932;6.780;2022-08-21T08:33:28;100443.00;;;24.80
9985;BMP180;16737;50.932;6.780;2022-08-21T08:35:56;100452.00;;;24.90
9985;BMP180;16737;50.932;6.780;2022-08-21T08:38:24;100437.00;;;24.90
9985;BMP180;16737;50.932;6.780;2022-08-21T08:40:58;100444.00;;;25.10
9985;BMP180;16737;50.932;6.780;2022-08-21T08:43:28;100447.00;;;25.20
9985;BMP180;16737;50.932;6.780;2022-08-21T08:45:59;100447.00;;;25.30
9985;BMP180;16737;50.932;6.780;2022-08-21T08:48:39;100451.00;;;25.50
9985;BMP180;16737;50.932;6.780;2022-08-21T08:51:12;100449.00;;;25.60
9985;BMP180;16737;50.932;6.780;2022-08-21T08:53:54;100445.00;;;25.80
9985;BMP180;16737;50.932;6.780;2022-08-21T08:56:29;100442.00;;;25.90
9985;BMP180;16737;50.932;6.780;2022-08-21T08:59:00;100437.00;;;26.00
9985;BMP180;16737;50.932;6.780;2022-08-21T09:01:30;100438.00;;;26.10
9985;BMP180;16737;50.932;6.780;2022-08-21T09:03:58;100439.00;;;26.20
9985;BMP180;16737;50.932;6.780;2022-08-21T09:06:43;100441.00;;;26.30
9985;BMP180;16737;50.932;6.780;2022-08-21T09:09:22;100437.00;;;26.50
9985;BMP180;16737;50.932;6.780;2022-08-21T09:11:57;100437.00;;;26.50
9985;BMP180;16737;50.932;6.780;2022-08-21T09:14:34;100433.00;;;26.50
9985;BMP180;16737;50.932;6.780;2022-08-21T09:17:15;100434.00;;;26.60
9985;BMP180;16737;50.932;6.780;2022-08-21T09:19:59;100430.00;;;26.60
9985;BMP180;16737;50.932;6.780;2022-08-21T09:22:35;100432.00;;;26.60
9985;BMP180;16737;50.932;6.780;2022-08-21T09:25:12;100439.00;;;26.70
9985;BMP180;16737;50.932;6.780;2022-08-21T09:27:42;100430.00;;;26.80
9985;BMP180;16737;50.932;6.780;2022-08-21T09:30:10;100428.00;;;26.80
9985;BMP180;16737;50.932;6.780;2022-08-21T09:32:40;100428.00;;;26.90
9985;BMP180;16737;50.932;6.780;2022-08-21T09:35:10;100430.00;;;27.00
9985;BMP180;16737;50.932;6.780;2022-08-21T09:37:49;100429.00;;;27.10
9985;BMP180;16737;50.932;6.780;2022-08-21T09:40:30;100419.00;;;27.20
9985;BMP180;16737;50.932;6.780;2022-08-21T09:43:00;100424.00;;;27.30
9985;BMP180;16737;50.932;6.780;2022-08-21T09:45:28;100424.00;;;27.30
9985;BMP180;16737;50.932;6.780;2022-08-21T09:48:07;100420.00;;;27.40
9985;BMP180;16737;50.932;6.780;2022-08-21T09:50:34;100421.00;;;27.50
9985;BMP180;16737;50.932;6.780;2022-08-21T09:53:03;100423.00;;;27.50
9985;BMP180;16737;50.932;6.780;2022-08-21T09:55:33;100416.00;;;27.60
9985;BMP180;16737;50.932;6.780;2022-08-21T09:58:19;100418.00;;;27.70
9985;BMP180;16737;50.932;6.780;2022-08-21T10:00:57;100426.00;;;27.90
9985;BMP180;16737;50.932;6.780;2022-08-21T10:03:26;100417.00;;;28.00
9985;BMP180;16737;50.932;6.780;2022-08-21T10:05:57;100422.00;;;28.10
9985;BMP180;16737;50.932;6.780;2022-08-21T10:08:27;100409.00;;;28.10
9985;BMP180;16737;50.932;6.780;2022-08-21T10:11:02;100407.00;;;28.20
9985;BMP180;16737;50.932;6.780;2022-08-21T10:13:41;100406.00;;;28.30
9985;BMP180;16737;50.932;6.780;2022-08-21T10:16:24;100408.00;;;28.30
9985;BMP180;16737;50.932;6.780;2022-08-21T10:19:06;100398.00;;;28.40
9985;BMP180;16737;50.932;6.780;2022-08-21T10:21:41;100409.00;;;28.60
9985;BMP180;16737;50.932;6.780;2022-08-21T10:24:16;100400.00;;;28.60
9985;BMP180;16737;50.932;6.780;2022-08-21T10:26:53;100399.00;;;28.70
9985;BMP180;16737;50.932;6.780;2022-08-21T10:29:39;100398.00;;;28.70
9985;BMP180;16737;50.932;6.780;2022-08-21T10:32:18;100398.00;;;28.80
9985;BMP180;16737;50.932;6.780;2022-08-21T10:34:58;100392.00;;;28.90
9985;BMP180;16737;50.932;6.780;2022-08-21T10:37:35;100394.00;;;29.00
9985;BMP180;16737;50.932;6.780;2022-08-21T10:40:15;100394.00;;;29.00
9985;BMP180;16737;50.932;6.780;2022-08-21T10:42:54;100397.00;;;29.10
9985;BMP180;16737;50.932;6.780;2022-08-21T10:45:35;100393.00;;;29.20
9985;BMP180;16737;50.932;6.780;2022-08-21T10:48:06;100391.00;;;29.20
9985;BMP180;16737;50.932;6.780;2022-08-21T10:50:41;100390.00;;;29.30
9985;BMP180;16737;50.932;6.780;2022-08-21T10:53:19;100380.00;;;29.30
9985;BMP180;16737;50.932;6.780;2022-08-21T10:55:55;100380.00;;;29.40
9985;BMP180;16737;50.932;6.780;2022-08-21T10:58:28;100378.00;;;29.50
9985;BMP180;16737;50.932;6.780;2022-08-21T11:00:58;100390.00;;;29.60
9985;BMP180;16737;50.932;6.780;2022-08-21T11:03:33;100378.00;;;29.60
9985;BMP180;16737;50.932;6.780;2022-08-21T11:06:06;100374.00;;;29.70
9985;BMP180;16737;50.932;6.780;2022-08-21T11:08:41;100382.00;;;29.80
9985;BMP180;16737;50.932;6.780;2022-08-21T11:11:12;100376.00;;;29.90
9985;BMP180;16737;50.932;6.780;2022-08-21T11:13:44;100387.00;;;29.90
9985;BMP180;16737;50.932;6.780;2022-08-21T11:16:18;100383.00;;;29.90
9985;BMP180;16737;50.932;6.780;2022-08-21T11:18:53;100375.00;;;29.90
9985;BMP180;16737;50.932;6.780;2022-08-21T11:21:35;100378.00;;;30.00
9985;BMP180;16737;50.932;6.780;2022-08-21T11:24:19;100379.00;;;30.00
9985;BMP180;16737;50.932;6.780;2022-08-21T11:26:52;100383.00;;;30.10
9985;BMP180;16737;50.932;6.780;2022-08-21T11:29:27;100387.00;;;30.10
9985;BMP180;16737;50.932;6.780;2022-08-21T11:32:07;100386.00;;;30.20
9985;BMP180;16737;50.932;6.780;2022-08-21T11:34:45;100379.00;;;30.20
9985;BMP180;16737;50.932;6.780;2022-08-21T11:37:21;100381.00;;;30.30
9985;BMP180;16737;50.932;6.780;2022-08-21T11:39:55;100369.00;;;30.40
9985;BMP180;16737;50.932;6.780;2022-08-21T11:42:29;100366.00;;;30.50
9985;BMP180;16737;50.932;6.780;2022-08-21T11:45:08;100370.00;;;30.70
9985;BMP180;16737;50.932;6.780;2022-08-21T11:47:50;100374.00;;;30.80
9985;BMP180;16737;50.932;6.780;2022-08-21T11:50:23;100374.00;;;30.90
9985;BMP180;16737;50.932;6.780;2022-08-21T11:52:56;100376.00;;;31.00
9985;BMP180;16737;50.932;6.780;2022-08-21T11:55:31;100377.00;;;31.20
9985;BMP180;16737;50.932;6.780;2022-08-21T11:58:04;100380.00;;;31.30
9985;BMP180;16737;50.932;6.780;2022-08-21T12:00:35;100371.00;;;31.40
9985;BMP180;16737;50.932;6.780;2022-08-21T12:03:09;100378.00;;;31.50
9985;BMP180;16737;50.932;6.780;2022-08-21T12:05:42;100374.00;;;31.70
9985;BMP180;16737;50.932;6.780;2022-08-21T12:08:26;100368.00;;;31.80
9985;BMP180;16737;50.932;6.780;2022-08-21T12:11:03;100365.00;;;31.90
9985;BMP180;16737;50.932;6.780;2022-08-21T12:13:33;100361.00;;;31.90
9985;BMP180;16737;50.932;6.780;2022-08-21T12:16:12;100364.00;;;31.90
9985;BMP180;16737;50.932;6.780;2022-08-21T12:18:40;100354.00;;;31.90
9985;BMP180;16737;50.932;6.780;2022-08-21T12:21:21;100357.00;;;31.80
9985;BMP180;16737;50.932;6.780;2022-08-21T12:24:01;100355.00;;;31.90
9985;BMP180;16737;50.932;6.780;2022-08-21T12:26:34;100355.00;;;31.90
9985;BMP180;16737;50.932;6.780;2022-08-21T12:29:13;100361.00;;;31.90
9985;BMP180;16737;50.932;6.780;2022-08-21T12:31:55;100353.00;;;32.00
9985;BMP180;16737;50.932;6.780;2022-08-21T12:34:25;100356.00;;;32.00
9985;BMP180;16737;50.932;6.780;2022-08-21T12:37:00;100351.00;;;32.10
9985;BMP180;16737;50.932;6.780;2022-08-21T12:39:31;100356.00;;;32.20
9985;BMP180;16737;50.932;6.780;2022-08-21T12:42:04;100353.00;;;32.30
9985;BMP180;16737;50.932;6.780;2022-08-21T12:44:38;100359.00;;;32.40
9985;BMP180;16737;50.932;6.780;2022-08-21T12:47:13;100359.00;;;32.50
9985;BMP180;16737;50.932;6.780;2022-08-21T12:49:48;100361.00;;;32.50
9985;BMP180;16737;50.932;6.780;2022-08-21T12:52:22;100352.00;;;32.60
9985;BMP180;16737;50.932;6.780;2022-08-21T12:54:51;100354.00;;;32.60
9985;BMP180;16737;50.932;6.780;2022-08-21T12:57:21;100349.00;;;32.60
9985;BMP180;16737;50.932;6.780;2022-08-21T12:59:53;100352.00;;;32.60
9985;BMP180;16737;50.932;6.780;2022-08-21T13:02:23;100344.00;;;32.60
9985;BMP180;16737;50.932;6.780;2022-08-21T13:04:53;100348.00;;;32.60
9985;BMP180;16737;50.932;6.780;2022-08-21T13:07:28;100350.00;;;32.70
9985;BMP180;16737;50.932;6.780;2022-08-21T13:10:02;100341.00;;;32.60
9985;BMP180;16737;50.932;6.780;2022-08-21T13:12:31;100349.00;;;32.70
9985;BMP180;16737;50.932;6.780;2022-08-21T13:15:03;100343.00;;;32.60
9985;BMP180;16737;50.932;6.780;2022-08-21T13:17:34;100348.00;;;32.60
9985;BMP180;16737;50.932;6.780;2022-08-21T13:20:05;100352.00;;;32.60
9985;BMP180;16737;50.932;6.780;2022-08-21T13:22:41;100344.00;;;32.50
9985;BMP180;16737;50.932;6.780;2022-08-21T13:25:12;100350.00;;;32.50
9985;BMP180;16737;50.932;6.780;2022-08-21T13:27:41;100348.00;;;32.40
9985;BMP180;16737;50.932;6.780;2022-08-21T13:30:11;100344.00;;;32.40
9985;BMP180;16737;50.932;6.780;2022-08-21T13:32:42;100341.00;;;32.30
9985;BMP180;16737;50.932;6.780;2022-08-21T13:35:14;100349.00;;;32.30
9985;BMP180;16737;50.932;6.780;2022-08-21T13:37:43;100346.00;;;32.30
9985;BMP180;16737;50.932;6.780;2022-08-21T13:40:15;100342.00;;;32.20
9985;BMP180;16737;50.932;6.780;2022-08-21T13:42:47;100343.00;;;32.30
9985;BMP180;16737;50.932;6.780;2022-08-21T13:45:21;100330.00;;;32.30
9985;BMP180;16737;50.932;6.780;2022-08-21T13:47:49;100337.00;;;32.30
9985;BMP180;16737;50.932;6.780;2022-08-21T13:50:19;100336.00;;;32.30
9985;BMP180;16737;50.932;6.780;2022-08-21T13:52:54;100345.00;;;32.30
9985;BMP180;16737;50.932;6.780;2022-08-21T13:55:25;100347.00;;;32.20
9985;BMP180;16737;50.932;6.780;2022-08-21T13:58:02;100336.00;;;32.10
9985;BMP180;16737;50.932;6.780;2022-08-21T14:00:33;100337.00;;;32.10
9985;BMP180;16737;50.932;6.780;2022-08-21T14:03:08;100339.00;;;32.10
9985;BMP180;16737;50.932;6.780;2022-08-21T14:05:43;100340.00;;;32.00
9985;BMP180;16737;50.932;6.780;2022-08-21T14:08:13;100332.00;;;32.00
9985;BMP180;16737;50.932;6.780;2022-08-21T14:10:44;100334.00;;;31.90
9985;BMP180;16737;50.932;6.780;2022-08-21T14:13:28;100339.00;;;31.90
9985;BMP180;16737;50.932;6.780;2022-08-21T14:15:58;100339.00;;;31.80
9985;BMP180;16737;50.932;6.780;2022-08-21T14:18:26;100334.00;;;31.70
9985;BMP180;16737;50.932;6.780;2022-08-21T14:21:04;100337.00;;;31.60
9985;BMP180;16737;50.932;6.780;2022-08-21T14:23:32;100335.00;;;31.60
9985;BMP180;16737;50.932;6.780;2022-08-21T14:26:04;100332.00;;;31.50
9985;BMP180;16737;50.932;6.780;2022-08-21T14:28:34;100324.00;;;31.40